sensor_id;sensor_type;location;lat;lon;timestamp;pressure;altitude;pressure_sealevel;temperature;humidity
20077;BME280;12348;42.710;23.378;2023-06-22T00:04:39;95540.06;;;17.47;100.00
20077;BME280;12348;42.710;23.378;2023-06-22T00:07:05;95538.94;;;17.48;100.00
20077;BME280;12348;42.710;23.378;2023-06-22T00:09:35;95541.03;;;17.42;100.00
20077;BME280;12348;42.710;23.378;2023-06-22T00:12:02;95533.97;;;17.50;100.00
20077;BME280;12348;42.710;23.378;2023-06-22T00:14:29;95529.19;;;17.47;100.00
20077;BME280;12348;42.710;23.378;2023-06-22T00:16:56;95536.38;;;17.51;100.00
20077;BME280;12348;42.710;23.378;2023-06-22T00:19:24;95526.47;;;17.55;100.00
20077;BME280;12348;42.710;23.378;2023-06-22T00:21:51;95526.44;;;17.64;100.00
20077;BME280;12348;42.710;23.378;2023-06-22T00:24:18;95527.72;;;17.66;100.00
20077;BME280;12348;42.710;23.378;2023-06-22T00:26:47;95514.56;;;17.68;100.00
20077;BME280;12348;42.710;23.378;2023-06-22T00:29:14;95513.91;;;17.72;100.00
20077;BME280;12348;42.710;23.378;2023-06-22T00:31:41;95519.84;;;17.65;100.00
20077;BME280;12348;42.710;23.378;2023-06-22T00:34:08;95515.03;;;17.71;100.00
20077;BME280;12348;42.710;23.378;2023-06-22T00:36:35;95521.13;;;17.76;100.00
20077;BME280;12348;42.710;23.378;2023-06-22T00:39:03;95522.88;;;17.81;100.00
20077;BME280;12348;42.710;23.378;2023-06-22T00:41:31;95517.28;;;17.77;100.00
20077;BME280;12348;42.710;23.378;2023-06-22T00:43:59;95513.41;;;17.87;100.00
20077;BME280;12348;42.710;23.378;2023-06-22T00:46:26;95505.38;;;17.90;100.00
20077;BME280;12348;42.710;23.378;2023-06-22T00:48:52;95508.09;;;17.90;100.00
20077;BME280;12348;42.710;23.378;2023-06-22T00:51:22;95513.88;;;17.89;100.00
20077;BME280;12348;42.710;23.378;2023-06-22T00:53:50;95519.97;;;17.86;100.00
20077;BME280;12348;42.710;23.378;2023-06-22T00:56:16;95517.41;;;17.81;100.00
20077;BME280;12348;42.710;23.378;2023-06-22T00:58:44;95513.44;;;17.78;100.00
20077;BME280;12348;42.710;23.378;2023-06-22T01:01:14;95516.81;;;17.75;100.00
20077;BME280;12348;42.710;23.378;2023-06-22T01:03:40;95517.91;;;17.65;100.00
20077;BME280;12348;42.710;23.378;2023-06-22T01:06:11;95529.00;;;17.60;100.00
20077;BME280;12348;42.710;23.378;2023-06-22T01:08:46;95522.13;;;17.54;100.00
20077;BME280;12348;42.710;23.378;2023-06-22T01:11:18;95523.72;;;17.47;100.00
20077;BME280;12348;42.710;23.378;2023-06-22T01:13:52;95522.00;;;17.42;100.00
20077;BME280;12348;42.710;23.378;2023-06-22T01:16:25;95529.03;;;17.43;100.00
20077;BME280;12348;42.710;23.378;2023-06-22T01:18:56;95529.22;;;17.29;100.00
20077;BME280;12348;42.710;23.378;2023-06-22T01:21:25;95527.47;;;17.16;100.00
20077;BME280;12348;42.710;23.378;2023-06-22T01:24:02;95527.63;;;17.19;100.00
20077;BME280;12348;42.710;23.378;2023-06-22T01:26:40;95521.41;;;17.10;100.00
20077;BME280;12348;42.710;23.378;2023-06-22T01:29:10;95519.16;;;17.12;100.00
20077;BME280;12348;42.710;23.378;2023-06-22T01:31:39;95517.41;;;17.08;100.00
20077;BME280;12348;42.710;23.378;2023-06-22T01:34:08;95531.31;;;17.06;100.00
20077;BME280;12348;42.710;23.378;2023-06-22T01:36:36;95523.66;;;17.00;100.00
20077;BME280;12348;42.710;23.378;2023-06-22T01:39:05;95534.84;;;16.98;100.00
20077;BME280;12348;42.710;23.378;2023-06-22T01:41:35;95538.69;;;16.97;100.00
20077;BME280;12348;42.710;23.378;2023-06-22T01:44:04;95537.25;;;17.00;100.00
20077;BME280;12348;42.710;23.378;2023-06-22T01:46:33;95540.13;;;17.03;100.00
20077;BME280;12348;42.710;23.378;2023-06-22T01:49:01;95542.34;;;17.01;100.00
20077;BME280;12348;42.710;23.378;2023-06-22T01:51:28;95534.53;;;17.00;100.00
20077;BME280;12348;42.710;23.378;2023-06-22T01:53:55;95550.19;;;17.03;100.00
20077;BME280;12348;42.710;23.378;2023-06-22T01:56:22;95552.44;;;17.01;100.00
20077;BME280;12348;42.710;23.378;2023-06-22T01:58:54;95555.97;;;17.01;100.00
20077;BME280;12348;42.710;23.378;2023-06-22T02:01:26;95556.44;;;16.94;100.00
20077;BME280;12348;42.710;23.378;2023-06-22T02:04:02;95554.03;;;16.93;100.00
20077;BME280;12348;42.710;23.378;2023-06-22T02:06:34;95564.44;;;16.91;100.00
20077;BME280;12348;42.710;23.378;2023-06-22T02:09:07;95558.19;;;16.82;100.00
20077;BME280;12348;42.710;23.378;2023-06-22T02:11:36;95560.88;;;16.73;100.00
20077;BME280;12348;42.710;23.378;2023-06-22T02:14:04;95563.78;;;16.77;100.00
20077;BME280;12348;42.710;23.378;2023-06-22T02:16:33;95554.44;;;16.69;100.00
20077;BME280;12348;42.710;23.378;2023-06-22T02:19:02;95545.81;;;16.67;100.00
20077;BME280;12348;42.710;23.378;2023-06-22T02:21:29;95557.31;;;16.55;100.00
20077;BME280;12348;42.710;23.378;2023-06-22T02:23:56;95553.66;;;16.60;100.00
20077;BME280;12348;42.710;23.378;2023-06-22T02:26:25;95552.22;;;16.62;100.00
20077;BME280;12348;42.710;23.378;2023-06-22T02:28:52;95548.06;;;16.65;100.00
20077;BME280;12348;42.710;23.378;2023-06-22T02:31:19;95546.28;;;16.69;100.00
20077;BME280;12348;42.710;23.378;2023-06-22T02:33:46;95541.69;;;16.69;100.00
20077;BME280;12348;42.710;23.378;2023-06-22T02:36:15;95550.13;;;16.59;100.00
20077;BME280;12348;42.710;23.378;2023-06-22T02:38:42;95551.88;;;16.55;100.00
20077;BME280;12348;42.710;23.378;2023-06-22T02:41:13;95554.94;;;16.62;100.00
20077;BME280;12348;42.710;23.378;2023-06-22T02:43:43;95545.16;;;16.53;100.00
20077;BME280;12348;42.710;23.378;2023-06-22T02:46:11;95544.06;;;16.62;100.00
20077;BME280;12348;42.710;23.378;2023-06-22T02:48:38;95543.28;;;16.62;100.00
20077;BME280;12348;42.710;23.378;2023-06-22T02:51:05;95561.00;;;16.59;100.00
20077;BME280;12348;42.710;23.378;2023-06-22T02:53:33;95563.22;;;16.57;100.00
20077;BME280;12348;42.710;23.378;2023-06-22T02:56:01;95562.75;;;16.55;100.00
20077;BME280;12348;42.710;23.378;2023-06-22T02:58:28;95553.16;;;16.58;100.00
20077;BME280;12348;42.710;23.378;2023-06-22T03:00:55;95557.31;;;16.55;100.00
20077;BME280;12348;42.710;23.378;2023-06-22T03:03:22;95562.94;;;16.59;100.00
20077;BME280;12348;42.710;23.378;2023-06-22T03:05:51;95552.06;;;16.67;100.00
20077;BME280;12348;42.710;23.378;2023-06-22T03:08:18;95554.34;;;16.83;100.00
20077;BME280;12348;42.710;23.378;2023-06-22T03:10:46;95560.28;;;16.85;100.00
20077;BME280;12348;42.710;23.378;2023-06-22T03:13:13;95574.03;;;16.97;100.00
20077;BME280;12348;42.710;23.378;2023-06-22T03:15:40;95578.53;;;16.93;100.00
20077;BME280;12348;42.710;23.378;2023-06-22T03:18:07;95574.69;;;16.94;100.00
20077;BME280;12348;42.710;23.378;2023-06-22T03:20:34;95572.59;;;16.91;100.00
20077;BME280;12348;42.710;23.378;2023-06-22T03:23:00;95581.56;;;17.00;100.00
20077;BME280;12348;42.710;23.378;2023-06-22T03:25:27;95586.69;;;17.02;100.00
20077;BME280;12348;42.710;23.378;2023-06-22T03:27:55;95583.97;;;16.84;100.00
20077;BME280;12348;42.710;23.378;2023-06-22T03:30:22;95588.44;;;16.98;100.00
20077;BME280;12348;42.710;23.378;2023-06-22T03:32:49;95584.63;;;17.07;100.00
20077;BME280;12348;42.710;23.378;2023-06-22T03:35:16;95581.09;;;17.15;100.00
20077;BME280;12348;42.710;23.378;2023-06-22T03:37:42;95577.72;;;17.36;100.00
20077;BME280;12348;42.710;23.378;2023-06-22T03:40:10;95584.56;;;17.85;100.00
20077;BME280;12348;42.710;23.378;2023-06-22T03:42:37;95591.75;;;18.75;100.00
20077;BME280;12348;42.710;23.378;2023-06-22T03:45:06;95595.91;;;19.65;100.00
20077;BME280;12348;42.710;23.378;2023-06-22T03:47:33;95597.09;;;20.34;100.00
20077;BME280;12348;42.710;23.378;2023-06-22T03:50:00;95587.31;;;21.06;100.00
20077;BME280;12348;42.710;23.378;2023-06-22T03:52:28;95589.38;;;21.50;100.00
20077;BME280;12348;42.710;23.378;2023-06-22T03:54:55;95598.59;;;21.86;100.00
20077;BME280;12348;42.710;23.378;2023-06-22T03:57:22;95615.44;;;22.00;100.00
20077;BME280;12348;42.710;23.378;2023-06-22T03:59:49;95607.72;;;22.34;100.00
20077;BME280;12348;42.710;23.378;2023-06-22T04:02:17;95604.66;;;23.37;100.00
20077;BME280;12348;42.710;23.378;2023-06-22T04:04:44;95606.81;;;23.09;100.00
20077;BME280;12348;42.710;23.378;2023-06-22T04:07:11;95606.38;;;22.43;100.00
20077;BME280;12348;42.710;23.378;2023-06-22T04:09:38;95603.13;;;22.38;100.00
20077;BME280;12348;42.710;23.378;2023-06-22T04:12:05;95601.09;;;22.07;100.00
20077;BME280;12348;42.710;23.378;2023-06-22T04:14:32;95592.50;;;21.92;100.00
20077;BME280;12348;42.710;23.378;2023-06-22T04:16:59;95595.81;;;23.09;100.00
20077;BME280;12348;42.710;23.378;2023-06-22T04:19:27;95597.63;;;23.94;100.00
20077;BME280;12348;42.710;23.378;2023-06-22T04:21:54;95590.34;;;23.28;100.00
20077;BME280;12348;42.710;23.378;2023-06-22T04:24:20;95580.09;;;23.64;98.83
20077;BME280;12348;42.710;23.378;2023-06-22T04:26:50;95578.94;;;23.65;99.69
20077;BME280;12348;42.710;23.378;2023-06-22T04:29:20;95574.25;;;23.11;100.00
20077;BME280;12348;42.710;23.378;2023-06-22T04:31:55;95577.56;;;22.85;100.00
20077;BME280;12348;42.710;23.378;2023-06-22T04:34:24;95577.72;;;24.05;96.28
20077;BME280;12348;42.710;23.378;2023-06-22T04:36:53;95586.19;;;24.84;88.80
20077;BME280;12348;42.710;23.378;2023-06-22T04:39:21;95588.19;;;25.10;86.50
20077;BME280;12348;42.710;23.378;2023-06-22T04:41:49;95578.19;;;24.76;89.96
20077;BME280;12348;42.710;23.378;2023-06-22T04:44:17;95578.56;;;25.57;85.91
20077;BME280;12348;42.710;23.378;2023-06-22T04:46:49;95578.94;;;26.64;81.18
20077;BME280;12348;42.710;23.378;2023-06-22T04:49:20;95583.31;;;27.20;76.07
20077;BME280;12348;42.710;23.378;2023-06-22T04:51:48;95588.25;;;27.59;74.81
20077;BME280;12348;42.710;23.378;2023-06-22T04:54:18;95596.41;;;28.21;71.03
20077;BME280;12348;42.710;23.378;2023-06-22T04:56:45;95604.00;;;28.39;69.26
20077;BME280;12348;42.710;23.378;2023-06-22T04:59:12;95604.41;;;29.27;67.25
20077;BME280;12348;42.710;23.378;2023-06-22T05:01:39;95606.44;;;30.32;64.72
20077;BME280;12348;42.710;23.378;2023-06-22T05:04:07;95601.19;;;31.04;60.73
20077;BME280;12348;42.710;23.378;2023-06-22T05:06:34;95601.00;;;32.82;54.80
20077;BME280;12348;42.710;23.378;2023-06-22T05:09:01;95598.97;;;32.32;56.34
20077;BME280;12348;42.710;23.378;2023-06-22T05:11:29;95599.13;;;31.91;57.86
20077;BME280;12348;42.710;23.378;2023-06-22T05:13:56;95595.53;;;32.21;55.46
20077;BME280;12348;42.710;23.378;2023-06-22T05:16:24;95596.66;;;34.51;49.16
20077;BME280;12348;42.710;23.378;2023-06-22T05:18:52;95596.06;;;34.76;47.17
20077;BME280;12348;42.710;23.378;2023-06-22T05:21:22;95594.78;;;35.88;45.26
20077;BME280;12348;42.710;23.378;2023-06-22T05:23:49;95608.97;;;37.28;41.55
20077;BME280;12348;42.710;23.378;2023-06-22T05:26:16;95610.63;;;36.36;41.37
20077;BME280;12348;42.710;23.378;2023-06-22T05:28:45;95601.06;;;35.34;44.05
20077;BME280;12348;42.710;23.378;2023-06-22T05:31:13;95607.94;;;35.45;44.95
20077;BME280;12348;42.710;23.378;2023-06-22T05:33:40;95612.81;;;35.74;44.80
20077;BME280;12348;42.710;23.378;2023-06-22T05:36:07;95607.00;;;36.10;43.90
20077;BME280;12348;42.710;23.378;2023-06-22T05:38:34;95619.16;;;35.45;45.39
20077;BME280;12348;42.710;23.378;2023-06-22T05:41:01;95626.28;;;35.01;47.27
20077;BME280;12348;42.710;23.378;2023-06-22T05:43:28;95620.34;;;36.06;44.42
20077;BME280;12348;42.710;23.378;2023-06-22T05:45:57;95620.47;;;35.57;45.74
20077;BME280;12348;42.710;23.378;2023-06-22T05:48:24;95627.31;;;35.85;44.85
20077;BME280;12348;42.710;23.378;2023-06-22T05:50:51;95625.13;;;33.86;49.78
20077;BME280;12348;42.710;23.378;2023-06-22T05:53:17;95616.03;;;33.62;52.38
20077;BME280;12348;42.710;23.378;2023-06-22T05:55:44;95613.81;;;32.22;57.50
20077;BME280;12348;42.710;23.378;2023-06-22T05:58:11;95617.81;;;33.52;53.88
20077;BME280;12348;42.710;23.378;2023-06-22T06:00:38;95615.94;;;34.82;47.70
20077;BME280;12348;42.710;23.378;2023-06-22T06:03:07;95607.81;;;34.15;49.12
20077;BME280;12348;42.710;23.378;2023-06-22T06:05:37;95610.75;;;34.64;48.34
20077;BME280;12348;42.710;23.378;2023-06-22T06:08:05;95616.50;;;34.73;48.58
20077;BME280;12348;42.710;23.378;2023-06-22T06:10:32;95613.81;;;32.79;53.99
20077;BME280;12348;42.710;23.378;2023-06-22T06:13:00;95604.66;;;31.15;58.96
20077;BME280;12348;42.710;23.378;2023-06-22T06:15:29;95603.25;;;32.09;55.82
20077;BME280;12348;42.710;23.378;2023-06-22T06:17:56;95603.56;;;32.15;56.29
20077;BME280;12348;42.710;23.378;2023-06-22T06:20:26;95603.06;;;32.78;52.82
20077;BME280;12348;42.710;23.378;2023-06-22T06:22:54;95601.06;;;33.92;49.94
20077;BME280;12348;42.710;23.378;2023-06-22T06:25:21;95612.31;;;34.65;45.85
20077;BME280;12348;42.710;23.378;2023-06-22T06:27:49;95607.00;;;34.34;47.32
20077;BME280;12348;42.710;23.378;2023-06-22T06:30:18;95591.31;;;35.38;45.45
20077;BME280;12348;42.710;23.378;2023-06-22T06:32:45;95599.53;;;36.46;42.24
20077;BME280;12348;42.710;23.378;2023-06-22T06:35:13;95600.91;;;36.54;41.29
20077;BME280;12348;42.710;23.378;2023-06-22T06:37:43;95599.00;;;37.02;40.52
20077;BME280;12348;42.710;23.378;2023-06-22T06:40:12;95597.59;;;36.30;41.73
20077;BME280;12348;42.710;23.378;2023-06-22T06:42:40;95595.81;;;37.60;40.46
20077;BME280;12348;42.710;23.378;2023-06-22T06:45:08;95592.84;;;37.54;39.65
20077;BME280;12348;42.710;23.378;2023-06-22T06:47:35;95590.13;;;37.16;40.70
20077;BME280;12348;42.710;23.378;2023-06-22T06:50:02;95592.94;;;37.03;40.61
20077;BME280;12348;42.710;23.378;2023-06-22T06:52:29;95579.13;;;36.58;41.29
20077;BME280;12348;42.710;23.378;2023-06-22T06:54:57;95573.41;;;34.70;46.56
20077;BME280;12348;42.710;23.378;2023-06-22T06:57:24;95579.59;;;31.56;57.72
20077;BME280;12348;42.710;23.378;2023-06-22T06:59:54;95576.56;;;31.74;57.93
20077;BME280;12348;42.710;23.378;2023-06-22T07:02:21;95575.88;;;32.31;57.03
20077;BME280;12348;42.710;23.378;2023-06-22T07:04:48;95568.94;;;32.94;54.21
20077;BME280;12348;42.710;23.378;2023-06-22T07:07:16;95569.47;;;32.62;55.58
20077;BME280;12348;42.710;23.378;2023-06-22T07:09:43;95574.44;;;31.89;56.66
20077;BME280;12348;42.710;23.378;2023-06-22T07:12:11;95581.84;;;31.69;58.46
20077;BME280;12348;42.710;23.378;2023-06-22T07:14:38;95575.56;;;31.95;58.17
20077;BME280;12348;42.710;23.378;2023-06-22T07:17:05;95578.16;;;32.91;55.61
20077;BME280;12348;42.710;23.378;2023-06-22T07:19:33;95582.66;;;34.15;51.23
20077;BME280;12348;42.710;23.378;2023-06-22T07:21:59;95584.44;;;33.85;52.46
20077;BME280;12348;42.710;23.378;2023-06-22T07:24:26;95574.78;;;33.70;51.54
20077;BME280;12348;42.710;23.378;2023-06-22T07:26:53;95569.25;;;33.46;50.25
20077;BME280;12348;42.710;23.378;2023-06-22T07:29:21;95576.84;;;35.11;48.00
20077;BME280;12348;42.710;23.378;2023-06-22T07:31:49;95576.97;;;35.53;46.85
20077;BME280;12348;42.710;23.378;2023-06-22T07:34:17;95581.22;;;37.65;41.30
20077;BME280;12348;42.710;23.378;2023-06-22T07:36:44;95584.25;;;39.36;37.56
20077;BME280;12348;42.710;23.378;2023-06-22T07:39:11;95583.38;;;39.75;37.54
20077;BME280;12348;42.710;23.378;2023-06-22T07:41:39;95582.91;;;40.89;34.84
20077;BME280;12348;42.710;23.378;2023-06-22T07:44:06;95575.00;;;39.99;35.32
20077;BME280;12348;42.710;23.378;2023-06-22T07:46:34;95579.25;;;40.04;35.64
20077;BME280;12348;42.710;23.378;2023-06-22T07:49:01;95576.16;;;40.96;33.75
20077;BME280;12348;42.710;23.378;2023-06-22T07:51:28;95575.78;;;41.99;32.28
20077;BME280;12348;42.710;23.378;2023-06-22T07:53:55;95574.13;;;42.67;31.54
20077;BME280;12348;42.710;23.378;2023-06-22T07:56:21;95576.94;;;41.93;31.87
20077;BME280;12348;42.710;23.378;2023-06-22T07:58:48;95573.59;;;39.21;36.77
20077;BME280;12348;42.710;23.378;2023-06-22T08:01:15;95575.06;;;38.86;38.09
20077;BME280;12348;42.710;23.378;2023-06-22T08:03:43;95568.78;;;38.19;41.47
20077;BME280;12348;42.710;23.378;2023-06-22T08:06:10;95557.53;;;38.50;39.47
20077;BME280;12348;42.710;23.378;2023-06-22T08:08:37;95557.78;;;39.24;37.88
20077;BME280;12348;42.710;23.378;2023-06-22T08:11:03;95555.19;;;38.49;39.27
20077;BME280;12348;42.710;23.378;2023-06-22T08:13:31;95554.84;;;36.89;44.02
20077;BME280;12348;42.710;23.378;2023-06-22T08:15:57;95550.78;;;36.01;45.60
20077;BME280;12348;42.710;23.378;2023-06-22T08:18:24;95544.22;;;35.79;47.19
20077;BME280;12348;42.710;23.378;2023-06-22T08:20:52;95544.88;;;37.01;44.03
20077;BME280;12348;42.710;23.378;2023-06-22T08:23:19;95546.56;;;36.48;43.84
20077;BME280;12348;42.710;23.378;2023-06-22T08:25:46;95540.13;;;37.68;41.78
20077;BME280;12348;42.710;23.378;2023-06-22T08:28:13;95545.19;;;38.48;40.17
20077;BME280;12348;42.710;23.378;2023-06-22T08:30:40;95536.34;;;37.83;40.84
20077;BME280;12348;42.710;23.378;2023-06-22T08:33:06;95540.75;;;36.68;45.60
20077;BME280;12348;42.710;23.378;2023-06-22T08:35:33;95541.66;;;37.12;43.05
20077;BME280;12348;42.710;23.378;2023-06-22T08:38:01;95542.41;;;35.72;47.40
20077;BME280;12348;42.710;23.378;2023-06-22T08:40:28;95543.16;;;36.91;45.57
20077;BME280;12348;42.710;23.378;2023-06-22T08:42:55;95543.94;;;36.92;46.64
20077;BME280;12348;42.710;23.378;2023-06-22T08:45:22;95540.63;;;35.49;50.67
20077;BME280;12348;42.710;23.378;2023-06-22T08:47:48;95539.72;;;36.23;48.35
20077;BME280;12348;42.710;23.378;2023-06-22T08:50:15;95541.25;;;35.40;51.64
20077;BME280;12348;42.710;23.378;2023-06-22T08:52:42;95537.75;;;37.09;45.64
20077;BME280;12348;42.710;23.378;2023-06-22T08:55:10;95537.91;;;39.27;40.13
20077;BME280;12348;42.710;23.378;2023-06-22T08:57:37;95527.22;;;39.22;40.02
20077;BME280;12348;42.710;23.378;2023-06-22T09:00:06;95533.84;;;39.38;38.62
20077;BME280;12348;42.710;23.378;2023-06-22T09:02:40;95522.53;;;38.61;40.76
20077;BME280;12348;42.710;23.378;2023-06-22T09:05:07;95519.94;;;37.82;42.86
20077;BME280;12348;42.710;23.378;2023-06-22T09:07:34;95515.44;;;36.80;47.60
20077;BME280;12348;42.710;23.378;2023-06-22T09:10:01;95518.72;;;37.61;43.70
20077;BME280;12348;42.710;23.378;2023-06-22T09:12:31;95519.69;;;39.01;38.63
20077;BME280;12348;42.710;23.378;2023-06-22T09:14:58;95513.59;;;37.69;42.16
20077;BME280;12348;42.710;23.378;2023-06-22T09:17:26;95514.13;;;37.98;44.44
20077;BME280;12348;42.710;23.378;2023-06-22T09:19:53;95514.56;;;36.32;44.88
20077;BME280;12348;42.710;23.378;2023-06-22T09:22:20;95517.19;;;37.12;41.74
20077;BME280;12348;42.710;23.378;2023-06-22T09:24:47;95522.75;;;36.78;42.72
20077;BME280;12348;42.710;23.378;2023-06-22T09:27:14;95530.06;;;37.23;42.59
20077;BME280;12348;42.710;23.378;2023-06-22T09:29:42;95519.09;;;37.94;43.91
20077;BME280;12348;42.710;23.378;2023-06-22T09:32:09;95518.94;;;39.19;40.98
20077;BME280;12348;42.710;23.378;2023-06-22T09:34:36;95529.16;;;39.44;37.58
20077;BME280;12348;42.710;23.378;2023-06-22T09:37:03;95531.03;;;38.70;37.45
20077;BME280;12348;42.710;23.378;2023-06-22T09:39:29;95529.63;;;39.79;36.15
20077;BME280;12348;42.710;23.378;2023-06-22T09:41:58;95525.69;;;38.72;38.48
20077;BME280;12348;42.710;23.378;2023-06-22T09:44:25;95537.44;;;38.70;38.36
20077;BME280;12348;42.710;23.378;2023-06-22T09:46:53;95525.63;;;38.13;37.69
20077;BME280;12348;42.710;23.378;2023-06-22T09:49:20;95514.22;;;39.07;37.48
20077;BME280;12348;42.710;23.378;2023-06-22T09:51:47;95510.66;;;38.25;39.39
20077;BME280;12348;42.710;23.378;2023-06-22T09:54:15;95512.78;;;38.12;37.70
20077;BME280;12348;42.710;23.378;2023-06-22T09:56:41;95512.38;;;34.65;44.40
20077;BME280;12348;42.710;23.378;2023-06-22T09:59:08;95502.69;;;35.61;41.02
20077;BME280;12348;42.710;23.378;2023-06-22T10:01:35;95500.75;;;36.25;41.33
20077;BME280;12348;42.710;23.378;2023-06-22T10:04:03;95501.78;;;35.06;42.77
20077;BME280;12348;42.710;23.378;2023-06-22T10:06:30;95503.84;;;35.76;42.58
20077;BME280;12348;42.710;23.378;2023-06-22T10:08:56;95502.22;;;36.30;41.71
20077;BME280;12348;42.710;23.378;2023-06-22T10:11:23;95490.69;;;35.60;41.49
20077;BME280;12348;42.710;23.378;2023-06-22T10:13:56;95487.94;;;35.15;44.02
20077;BME280;12348;42.710;23.378;2023-06-22T10:16:24;95483.72;;;36.45;41.17
20077;BME280;12348;42.710;23.378;2023-06-22T10:18:52;95495.56;;;36.75;39.80
20077;BME280;12348;42.710;23.378;2023-06-22T10:21:20;95487.34;;;37.72;39.48
20077;BME280;12348;42.710;23.378;2023-06-22T10:23:47;95490.47;;;38.58;37.90
20077;BME280;12348;42.710;23.378;2023-06-22T10:26:13;95482.47;;;39.34;36.67
20077;BME280;12348;42.710;23.378;2023-06-22T10:28:40;95494.34;;;39.84;34.58
20077;BME280;12348;42.710;23.378;2023-06-22T10:31:07;95489.38;;;39.33;36.45
20077;BME280;12348;42.710;23.378;2023-06-22T10:33:34;95488.91;;;38.57;34.29
20077;BME280;12348;42.710;23.378;2023-06-22T10:36:00;95493.31;;;38.58;34.02
20077;BME280;12348;42.710;23.378;2023-06-22T10:38:28;95483.09;;;38.11;37.53
20077;BME280;12348;42.710;23.378;2023-06-22T10:40:55;95484.97;;;38.14;37.52
20077;BME280;12348;42.710;23.378;2023-06-22T10:43:22;95477.88;;;37.78;38.64
20077;BME280;12348;42.710;23.378;2023-06-22T10:45:49;95473.84;;;37.35;38.60
20077;BME280;12348;42.710;23.378;2023-06-22T10:48:16;95468.47;;;37.28;38.86
20077;BME280;12348;42.710;23.378;2023-06-22T10:50:42;95473.94;;;37.98;36.80
20077;BME280;12348;42.710;23.378;2023-06-22T10:53:09;95464.44;;;36.95;38.18
20077;BME280;12348;42.710;23.378;2023-06-22T10:55:37;95458.28;;;37.22;39.38
20077;BME280;12348;42.710;23.378;2023-06-22T10:58:04;95463.84;;;36.65;40.17
20077;BME280;12348;42.710;23.378;2023-06-22T11:00:31;95465.97;;;36.61;40.83
20077;BME280;12348;42.710;23.378;2023-06-22T11:02:58;95466.81;;;36.83;41.96
20077;BME280;12348;42.710;23.378;2023-06-22T11:05:24;95467.09;;;36.51;40.11
20077;BME280;12348;42.710;23.378;2023-06-22T11:07:51;95465.47;;;35.02;43.52
20077;BME280;12348;42.710;23.378;2023-06-22T11:10:18;95460.53;;;35.22;45.55
20077;BME280;12348;42.710;23.378;2023-06-22T11:12:46;95458.59;;;34.41;47.46
20077;BME280;12348;42.710;23.378;2023-06-22T11:15:13;95459.47;;;34.38;45.91
20077;BME280;12348;42.710;23.378;2023-06-22T11:17:39;95455.25;;;34.46;47.58
20077;BME280;12348;42.710;23.378;2023-06-22T11:20:07;95455.44;;;34.72;44.38
20077;BME280;12348;42.710;23.378;2023-06-22T11:22:46;95451.97;;;34.52;44.75
20077;BME280;12348;42.710;23.378;2023-06-22T11:25:13;95444.09;;;34.14;46.69
20077;BME280;12348;42.710;23.378;2023-06-22T11:27:40;95445.88;;;33.68;51.36
20077;BME280;12348;42.710;23.378;2023-06-22T11:30:09;95442.25;;;33.31;52.37
20077;BME280;12348;42.710;23.378;2023-06-22T11:32:36;95433.69;;;33.02;53.96
20077;BME280;12348;42.710;23.378;2023-06-22T11:35:02;95440.22;;;32.92;50.54
20077;BME280;12348;42.710;23.378;2023-06-22T11:37:29;95434.59;;;33.55;50.31
20077;BME280;12348;42.710;23.378;2023-06-22T11:39:56;95439.91;;;33.10;49.32
20077;BME280;12348;42.710;23.378;2023-06-22T11:42:23;95442.97;;;32.48;51.01
20077;BME280;12348;42.710;23.378;2023-06-22T11:44:50;95428.13;;;32.31;53.34
20077;BME280;12348;42.710;23.378;2023-06-22T11:47:18;95423.47;;;32.92;51.43
20077;BME280;12348;42.710;23.378;2023-06-22T11:49:45;95430.03;;;33.25;48.64
20077;BME280;12348;42.710;23.378;2023-06-22T11:52:12;95411.69;;;33.04;49.26
20077;BME280;12348;42.710;23.378;2023-06-22T11:54:38;95427.31;;;33.01;49.26
20077;BME280;12348;42.710;23.378;2023-06-22T11:57:05;95418.00;;;32.65;49.39
20077;BME280;12348;42.710;23.378;2023-06-22T11:59:32;95418.53;;;32.32;51.12
20077;BME280;12348;42.710;23.378;2023-06-22T12:01:59;95423.28;;;32.59;51.49
20077;BME280;12348;42.710;23.378;2023-06-22T12:04:27;95427.09;;;32.69;53.38
20077;BME280;12348;42.710;23.378;2023-06-22T12:06:54;95421.13;;;32.90;51.06
20077;BME280;12348;42.710;23.378;2023-06-22T12:09:21;95430.38;;;33.07;52.19
20077;BME280;12348;42.710;23.378;2023-06-22T12:11:47;95417.47;;;31.72;55.68
20077;BME280;12348;42.710;23.378;2023-06-22T12:14:14;95430.72;;;31.00;59.88
20077;BME280;12348;42.710;23.378;2023-06-22T12:16:41;95436.63;;;30.15;64.91
20077;BME280;12348;42.710;23.378;2023-06-22T12:19:09;95427.00;;;28.80;72.96
20077;BME280;12348;42.710;23.378;2023-06-22T12:21:37;95426.28;;;28.47;74.23
20077;BME280;12348;42.710;23.378;2023-06-22T12:24:04;95437.34;;;28.08;76.13
20077;BME280;12348;42.710;23.378;2023-06-22T12:26:31;95431.81;;;27.97;79.83
20077;BME280;12348;42.710;23.378;2023-06-22T12:28:58;95440.50;;;27.96;81.73
20077;BME280;12348;42.710;23.378;2023-06-22T12:31:26;95449.22;;;28.05;82.29
20077;BME280;12348;42.710;23.378;2023-06-22T12:33:52;95452.78;;;28.09;82.36
20077;BME280;12348;42.710;23.378;2023-06-22T12:36:19;95463.06;;;28.16;82.34
20077;BME280;12348;42.710;23.378;2023-06-22T12:38:47;95469.69;;;27.61;93.16
20077;BME280;12348;42.710;23.378;2023-06-22T12:41:14;95460.72;;;26.98;96.20
20077;BME280;12348;42.710;23.378;2023-06-22T12:43:40;95458.09;;;26.57;99.01
20077;BME280;12348;42.710;23.378;2023-06-22T12:46:07;95465.56;;;26.50;98.16
20077;BME280;12348;42.710;23.378;2023-06-22T12:48:34;95466.97;;;26.29;95.98
20077;BME280;12348;42.710;23.378;2023-06-22T12:51:06;95479.25;;;26.39;95.78